createdAt,value
2022-09-29T00:01:13.489Z,40.94
2022-09-29T00:03:41.212Z,40.84
2022-09-29T00:06:08.921Z,40.96
2022-09-29T00:08:39.732Z,40.96
2022-09-29T00:11:07.495Z,40.96
2022-09-29T00:13:35.535Z,40.75
2022-09-29T00:16:03.312Z,40.99
2022-09-29T00:18:31.032Z,40.62
2022-09-29T00:20:58.676Z,40.63
2022-09-29T00:23:26.471Z,40.85
2022-09-29T00:25:54.167Z,41.06
2022-09-29T00:28:21.862Z,41.09
2022-09-29T00:30:49.585Z,41.09
2022-09-29T00:33:17.361Z,40.74
2022-09-29T00:35:45.065Z,40.90
2022-09-29T00:38:12.743Z,40.95
2022-09-29T00:40:40.612Z,41.11
2022-09-29T00:43:08.420Z,40.88
2022-09-29T00:45:36.701Z,41.19
2022-09-29T00:48:04.683Z,40.89
2022-09-29T01:28:32.191Z,41.05
2022-09-29T01:30:59.915Z,41.25
2022-09-29T01:33:27.585Z,41.23
2022-09-29T01:35:55.404Z,41.28
2022-09-29T01:38:23.099Z,41.17
2022-09-29T01:40:50.840Z,41.19
2022-09-29T01:43:18.617Z,41.05
2022-09-29T01:45:46.321Z,41.07
2022-09-29T01:48:14.099Z,40.78
2022-09-29T01:50:41.909Z,40.92
2022-09-29T01:53:09.676Z,41.10
2022-09-29T01:55:37.361Z,41.22
2022-09-29T01:58:05.141Z,40.90
2022-09-29T02:00:33.353Z,41.20
2022-09-29T02:03:01.149Z,41.20
2022-09-29T02:05:28.850Z,41.24
2022-09-29T02:07:56.669Z,41.23
2022-09-29T02:10:24.472Z,41.00
2022-09-29T02:12:52.891Z,41.31
2022-09-29T02:15:20.580Z,41.09
2022-09-29T02:17:48.338Z,41.08
2022-09-29T02:20:16.023Z,41.28
2022-09-29T02:22:43.685Z,41.09
2022-09-29T02:25:11.398Z,41.24
2022-09-29T02:27:39.074Z,41.31
2022-09-29T02:30:07.127Z,41.18
2022-09-29T02:32:34.849Z,41.11
2022-09-29T02:35:02.634Z,41.14
2022-09-29T02:37:30.391Z,41.24
2022-09-29T02:39:58.726Z,41.22
2022-09-29T02:42:26.725Z,40.79
2022-09-29T02:44:54.437Z,41.38
2022-09-29T02:47:22.121Z,40.85
2022-09-29T02:49:50.852Z,40.85
2022-09-29T02:52:18.576Z,41.18
2022-09-29T02:54:46.592Z,40.93
2022-09-29T02:57:14.417Z,41.41
2022-09-29T02:59:42.112Z,40.93
2022-09-29T03:02:10.132Z,41.38
2022-09-29T03:04:38.155Z,41.19
2022-09-29T03:07:05.849Z,40.98
2022-09-29T03:09:33.783Z,40.98
2022-09-29T03:12:01.477Z,41.02
2022-09-29T03:14:29.162Z,41.32
2022-09-29T03:16:56.847Z,41.15
2022-09-29T03:19:24.932Z,41.01
2022-09-29T03:21:52.780Z,41.26
2022-09-29T03:24:21.107Z,40.89
2022-09-29T03:26:48.928Z,41.12
2022-09-29T03:29:16.658Z,41.31
2022-09-29T03:31:44.565Z,41.20
2022-09-29T03:34:12.298Z,40.94
2022-09-29T03:36:41.484Z,41.08
2022-09-29T03:39:09.365Z,41.14
2022-09-29T03:41:37.078Z,41.07
2022-09-29T03:44:04.788Z,41.11
2022-09-29T03:46:32.475Z,40.87
2022-09-29T03:49:00.162Z,41.13
2022-09-29T03:51:27.887Z,41.07
2022-09-29T03:53:55.643Z,41.19
2022-09-29T03:56:23.408Z,41.01
2022-09-29T03:58:51.284Z,40.87
2022-09-29T04:01:18.999Z,41.22
2022-09-29T04:03:47.018Z,40.99
2022-09-29T04:06:14.722Z,40.91
2022-09-29T04:08:42.405Z,41.29
2022-09-29T04:11:10.100Z,40.88
2022-09-29T04:13:37.798Z,41.02
2022-09-29T04:16:05.831Z,41.11
2022-09-29T04:18:33.531Z,40.86
2022-09-29T04:21:01.673Z,41.08
2022-09-29T04:23:30.546Z,41.09
2022-09-29T04:25:58.237Z,41.29
2022-09-29T04:28:26.164Z,41.21
2022-09-29T04:30:54.024Z,41.18
2022-09-29T04:33:21.839Z,41.13
2022-09-29T04:35:49.591Z,41.32
2022-09-29T04:38:17.260Z,40.96
2022-09-29T04:40:44.984Z,40.86
2022-09-29T04:43:12.737Z,41.20
2022-09-29T04:45:40.461Z,41.03
2022-09-29T04:48:08.641Z,40.97
2022-09-29T04:50:36.392Z,41.22
2022-09-29T04:53:04.202Z,41.23
2022-09-29T04:55:32.211Z,40.99
2022-09-29T04:57:59.917Z,41.16
2022-09-29T05:00:27.650Z,41.00
2022-09-29T05:02:55.581Z,41.16
2022-09-29T05:05:23.306Z,41.26
2022-09-29T05:07:50.999Z,40.98
2022-09-29T05:10:18.748Z,40.97
2022-09-29T05:12:46.417Z,41.20
2022-09-29T05:15:14.203Z,41.29
2022-09-29T05:17:41.918Z,41.20
2022-09-29T05:20:09.739Z,41.23
2022-09-29T05:22:37.422Z,41.07
2022-09-29T05:25:05.318Z,41.16
2022-09-29T05:27:33.025Z,41.01
2022-09-29T05:30:00.751Z,40.87
2022-09-29T05:32:28.472Z,40.47
2022-09-29T05:34:56.448Z,41.09
2022-09-29T05:37:24.319Z,41.23
2022-09-29T05:39:52.089Z,41.36
2022-09-29T05:42:20.520Z,41.16
2022-09-29T05:44:48.281Z,40.86
2022-09-29T05:47:15.979Z,41.06
2022-09-29T05:49:43.715Z,41.25
2022-09-29T05:52:11.378Z,41.21
2022-09-29T05:54:39.181Z,41.21
2022-09-29T05:57:06.961Z,41.05
2022-09-29T05:59:34.647Z,41.30
2022-09-29T06:02:02.413Z,41.37
2022-09-29T06:04:30.154Z,41.18
2022-09-29T06:06:57.873Z,41.00
2022-09-29T06:09:25.724Z,41.10
2022-09-29T06:11:53.438Z,41.26
2022-09-29T06:14:21.140Z,41.25
2022-09-29T06:16:50.579Z,41.40
2022-09-29T06:19:18.376Z,41.00
2022-09-29T06:21:46.067Z,41.25
2022-09-29T06:24:13.765Z,41.37
2022-09-29T06:26:41.555Z,40.89
2022-09-29T06:29:09.299Z,41.30
2022-09-29T06:31:37.346Z,41.30
2022-09-29T06:34:05.284Z,41.41
2022-09-29T06:36:52.948Z,41.50
2022-09-29T06:39:20.757Z,41.22
2022-09-29T06:41:52.295Z,41.45
2022-09-29T06:44:20.031Z,41.64
2022-09-29T06:46:47.748Z,41.54
2022-09-29T06:49:16.414Z,41.43
2022-09-29T06:51:46.318Z,41.79
2022-09-29T06:54:14.304Z,41.79
2022-09-29T06:56:42.677Z,41.80
2022-09-29T06:59:10.465Z,41.96
2022-09-29T07:01:38.198Z,41.90
2022-09-29T07:04:05.915Z,41.85
2022-09-29T07:06:33.634Z,41.76
2022-09-29T07:09:01.399Z,41.81
2022-09-29T07:11:29.125Z,41.69
2022-09-29T07:13:56.872Z,41.65
2022-09-29T07:16:24.851Z,41.70
2022-09-29T07:18:52.654Z,41.76
2022-09-29T07:21:21.510Z,41.80
2022-09-29T07:23:49.326Z,41.98
2022-09-29T07:26:17.534Z,41.58
2022-09-29T07:28:45.541Z,41.84
2022-09-29T07:31:15.460Z,41.75
2022-09-29T07:33:43.832Z,42.03
2022-09-29T07:36:11.690Z,41.90
2022-09-29T07:38:39.414Z,42.07
2022-09-29T07:41:07.199Z,41.98
2022-09-29T07:43:34.959Z,41.78
2022-09-29T07:46:02.823Z,41.64
2022-09-29T07:48:31.863Z,42.06
2022-09-29T07:50:59.927Z,41.71
2022-09-29T07:53:27.691Z,41.89
2022-09-29T07:55:55.548Z,41.91
2022-09-29T07:58:23.260Z,42.02
2022-09-29T08:00:50.979Z,42.01
2022-09-29T08:03:18.837Z,41.80
2022-09-29T08:05:46.531Z,41.73
2022-09-29T08:08:14.460Z,41.98
2022-09-29T08:10:52.304Z,41.73
2022-09-29T08:13:20.898Z,41.86
2022-09-29T08:15:48.599Z,41.72
2022-09-29T08:18:16.284Z,41.96
2022-09-29T08:20:44.016Z,41.99
2022-09-29T08:23:11.729Z,41.79
2022-09-29T08:25:39.525Z,42.32
2022-09-29T08:28:07.464Z,42.05
2022-09-29T08:30:35.134Z,41.87
2022-09-29T08:33:04.061Z,41.72
2022-09-29T08:35:31.850Z,41.90
2022-09-29T08:37:59.589Z,42.13
2022-09-29T08:40:27.317Z,41.84
2022-09-29T08:42:55.046Z,41.78
2022-09-29T08:45:22.750Z,41.98
2022-09-29T08:47:50.527Z,42.07
2022-09-29T08:50:18.291Z,41.80
2022-09-29T08:52:52.017Z,41.90
2022-09-29T08:55:21.895Z,42.09
2022-09-29T08:57:50.008Z,42.14
2022-09-29T09:00:18.170Z,42.16
2022-09-29T09:02:45.981Z,41.95
2022-09-29T09:05:13.691Z,42.00
2022-09-29T09:07:41.455Z,42.11
2022-09-29T09:10:09.311Z,42.13
2022-09-29T09:12:36.998Z,42.28
2022-09-29T09:15:04.710Z,42.26
2022-09-29T09:17:32.454Z,42.14
2022-09-29T09:20:00.140Z,42.18
2022-09-29T09:22:27.849Z,42.25
2022-09-29T09:24:55.744Z,42.11
2022-09-29T09:27:23.472Z,42.25
2022-09-29T09:29:51.210Z,42.10
2022-09-29T09:32:21.935Z,42.10
2022-09-29T09:34:49.699Z,42.44
2022-09-29T09:37:17.378Z,42.22
2022-09-29T09:39:45.254Z,42.11
2022-09-29T09:42:13.003Z,42.32
2022-09-29T09:44:40.710Z,42.19
2022-09-29T09:47:08.431Z,42.41
2022-09-29T09:49:36.135Z,42.39
2022-09-29T09:52:04.708Z,42.49
2022-09-29T09:54:32.519Z,42.23
2022-09-29T09:57:00.271Z,42.61
2022-09-29T09:59:27.954Z,42.33
2022-09-29T10:01:55.782Z,42.34
2022-09-29T10:04:24.657Z,42.15
2022-09-29T10:06:52.487Z,42.38
2022-09-29T10:09:20.474Z,42.19
2022-09-29T10:11:48.369Z,42.03
2022-09-29T10:14:16.057Z,42.04
2022-09-29T10:16:43.797Z,41.84
2022-09-29T10:19:12.006Z,41.83
2022-09-29T10:21:39.667Z,42.23
2022-09-29T10:24:08.480Z,42.06
2022-09-29T10:26:36.126Z,41.92
2022-09-29T10:29:03.893Z,42.31
2022-09-29T10:31:31.599Z,42.16
2022-09-29T10:33:59.314Z,42.15
2022-09-29T10:36:27.084Z,42.02
2022-09-29T10:38:59.565Z,42.01
2022-09-29T10:41:32.004Z,42.00
2022-09-29T10:43:59.664Z,42.07
2022-09-29T10:46:27.779Z,42.04
2022-09-29T10:48:55.673Z,42.11
2022-09-29T10:51:23.373Z,41.91
2022-09-29T10:53:51.071Z,42.04
2022-09-29T10:56:18.753Z,42.01
2022-09-29T10:58:59.004Z,42.07
2022-09-29T11:01:30.061Z,42.07
2022-09-29T11:04:01.571Z,42.36
2022-09-29T11:06:29.327Z,42.16
2022-09-29T11:08:57.308Z,42.20
2022-09-29T11:11:24.990Z,42.17
2022-09-29T11:13:53.145Z,42.28
2022-09-29T11:16:20.888Z,41.92
2022-09-29T11:18:49.059Z,42.20
2022-09-29T11:21:16.909Z,41.86
2022-09-29T11:23:44.613Z,41.65
2022-09-29T11:26:12.321Z,42.07
2022-09-29T11:28:40.004Z,42.03
2022-09-29T11:31:09.537Z,41.75
2022-09-29T11:33:37.253Z,42.16
2022-09-29T11:36:05.057Z,42.04
2022-09-29T11:38:32.826Z,41.96
2022-09-29T11:41:00.517Z,42.07
2022-09-29T11:43:28.179Z,42.13
2022-09-29T11:45:55.925Z,42.23
2022-09-29T11:48:27.250Z,42.28
2022-09-29T11:50:58.564Z,42.21
2022-09-29T11:53:26.443Z,42.11
2022-09-29T11:55:54.470Z,42.35
2022-09-29T11:58:22.274Z,41.98
2022-09-29T12:00:49.967Z,42.21
2022-09-29T12:03:18.019Z,42.17
2022-09-29T12:05:46.733Z,42.19
2022-09-29T12:08:14.500Z,42.00
2022-09-29T12:10:44.316Z,42.34
2022-09-29T12:13:12.044Z,42.34
2022-09-29T12:15:40.989Z,42.31
2022-09-29T12:18:09.106Z,42.43
2022-09-29T12:20:36.795Z,42.34
2022-09-29T12:23:05.753Z,42.09
2022-09-29T12:25:33.510Z,42.45
2022-09-29T12:28:01.592Z,42.20
2022-09-29T12:30:30.258Z,42.40
2022-09-29T12:32:58.455Z,42.14
2022-09-29T12:35:26.238Z,42.49
2022-09-29T12:37:53.984Z,42.25
2022-09-29T12:40:21.697Z,42.46
2022-09-29T12:42:49.422Z,42.21
2022-09-29T12:45:17.142Z,42.26
2022-09-29T12:47:44.825Z,42.18
2022-09-29T12:50:12.490Z,42.54
2022-09-29T12:52:41.169Z,42.32
2022-09-29T12:55:09.501Z,42.51
2022-09-29T12:57:37.218Z,42.30
2022-09-29T13:00:05.016Z,42.31
2022-09-29T13:02:32.795Z,42.25
2022-09-29T13:05:00.537Z,41.99
2022-09-29T13:07:28.321Z,42.32
2022-09-29T13:09:56.010Z,42.21
2022-09-29T13:12:23.718Z,42.22
2022-09-29T13:14:51.477Z,42.36
2022-09-29T13:17:19.341Z,42.33
2022-09-29T13:19:57.394Z,42.30
2022-09-29T13:22:25.851Z,42.12
2022-09-29T13:24:54.591Z,42.03
2022-09-29T13:27:26.869Z,42.28
2022-09-29T13:29:54.631Z,41.89
2022-09-29T13:32:23.768Z,42.00
2022-09-29T13:34:51.435Z,42.00
2022-09-29T13:37:19.169Z,42.21
2022-09-29T13:39:47.046Z,42.10
2022-09-29T13:42:14.765Z,41.93
2022-09-29T13:44:43.161Z,42.03
2022-09-29T13:47:10.907Z,41.96
2022-09-29T13:49:38.564Z,41.99
2022-09-29T13:52:06.401Z,42.12
2022-09-29T13:54:34.225Z,42.19
2022-09-29T13:57:01.974Z,42.12
2022-09-29T13:59:30.064Z,42.12
2022-09-29T14:01:57.812Z,42.05
2022-09-29T14:04:25.687Z,42.37
2022-09-29T14:06:53.385Z,42.15
2022-09-29T14:09:22.731Z,42.28
2022-09-29T14:11:50.810Z,42.36
2022-09-29T14:14:18.548Z,42.45
2022-09-29T14:16:46.636Z,42.33
2022-09-29T14:19:14.506Z,42.49
2022-09-29T14:21:42.359Z,42.13
2022-09-29T14:24:10.086Z,42.17
2022-09-29T14:26:37.783Z,42.53
2022-09-29T14:29:05.636Z,42.44
2022-09-29T14:31:33.299Z,42.22
2022-09-29T14:34:01.006Z,42.28
2022-09-29T14:36:28.823Z,42.25
2022-09-29T14:39:21.670Z,42.09
2022-09-29T14:41:44.260Z,42.48
2022-09-29T14:44:11.946Z,42.08
2022-09-29T14:46:57.498Z,42.11
2022-09-29T14:49:43.301Z,42.14
2022-09-29T14:52:12.695Z,42.33
2022-09-29T14:54:43.319Z,42.14
2022-09-29T14:57:11.197Z,42.13
2022-09-29T14:59:39.619Z,42.48
2022-09-29T15:02:07.381Z,42.25
2022-09-29T15:04:35.150Z,42.18
2022-09-29T15:07:03.125Z,42.04
2022-09-29T15:09:31.232Z,42.11
2022-09-29T15:12:04.375Z,41.86
2022-09-29T15:14:32.092Z,41.91
2022-09-29T15:16:59.773Z,41.74
2022-09-29T15:19:29.310Z,42.10
2022-09-29T15:21:57.069Z,40.29
2022-09-29T15:24:24.824Z,32.23
2022-09-29T15:26:53.844Z,25.78
2022-09-29T15:29:21.734Z,23.66
2022-09-29T15:31:50.130Z,22.58
2022-09-29T15:34:17.870Z,22.90
2022-09-29T15:36:45.739Z,22.73
2022-09-29T15:39:13.455Z,22.75
2022-09-29T15:41:44.961Z,22.53
2022-09-29T15:44:13.457Z,22.66
2022-09-29T15:46:41.654Z,22.34
2022-09-29T15:49:09.444Z,22.73
2022-09-29T15:51:37.190Z,22.30
2022-09-29T15:54:09.325Z,22.03
2022-09-29T15:56:57.483Z,21.82
2022-09-29T15:59:25.195Z,21.28
2022-09-29T16:01:52.957Z,20.99
2022-09-29T16:04:20.814Z,20.57
2022-09-29T16:06:48.969Z,20.40
2022-09-29T16:09:17.457Z,20.08
2022-09-29T16:11:45.369Z,19.54
2022-09-29T16:14:13.101Z,18.99
2022-09-29T16:16:40.889Z,19.27
2022-09-29T16:19:08.947Z,18.69
2022-09-29T16:21:36.639Z,18.44
2022-09-29T16:24:04.383Z,18.94
2022-09-29T16:26:32.045Z,18.61
2022-09-29T16:28:59.747Z,18.94
2022-09-29T16:31:27.530Z,18.49
2022-09-29T16:33:56.001Z,18.55
2022-09-29T16:36:23.677Z,19.06
2022-09-29T16:38:51.605Z,19.37
2022-09-29T16:41:19.315Z,19.70
2022-09-29T16:43:47.766Z,20.73
2022-09-29T16:46:15.598Z,21.33
2022-09-29T16:48:43.618Z,22.32
2022-09-29T16:51:27.840Z,23.44
2022-09-29T16:53:59.015Z,23.57
2022-09-29T16:56:26.901Z,24.60
2022-09-29T16:58:54.692Z,25.79
2022-09-29T17:01:22.408Z,26.81
2022-09-29T17:03:50.156Z,27.42
2022-09-29T17:06:17.839Z,28.06
2022-09-29T17:08:48.897Z,28.36
2022-09-29T17:11:19.783Z,28.69
2022-09-29T17:13:47.718Z,29.71
2022-09-29T17:16:21.335Z,30.65
2022-09-29T17:18:50.017Z,30.73
2022-09-29T17:21:17.723Z,31.18
2022-09-29T17:23:45.438Z,31.69
2022-09-29T17:26:31.016Z,31.98
2022-09-29T17:28:58.757Z,31.73
2022-09-29T17:31:26.496Z,31.09
2022-09-29T17:33:54.283Z,30.52
2022-09-29T17:36:22.193Z,30.01
2022-09-29T17:38:50.838Z,29.38
2022-09-29T17:41:19.039Z,28.79
2022-09-29T17:43:47.670Z,27.85
2022-09-29T17:46:15.547Z,26.36
2022-09-29T17:48:43.325Z,25.76
2022-09-29T17:51:11.029Z,25.00
2022-09-29T17:53:38.789Z,24.42
2022-09-29T17:56:07.993Z,24.39
2022-09-29T17:58:35.998Z,24.90
2022-09-29T18:01:03.738Z,25.49
2022-09-29T18:03:39.676Z,25.37
2022-09-29T18:06:07.739Z,26.37
2022-09-29T18:08:35.494Z,26.87
2022-09-29T18:11:03.200Z,27.72
2022-09-29T18:13:31.403Z,28.47
2022-09-29T18:15:59.175Z,29.15
2022-09-29T18:18:26.970Z,29.89
2022-09-29T18:20:54.671Z,30.38
2022-09-29T18:23:23.306Z,30.92
2022-09-29T18:25:51.060Z,31.38
2022-09-29T18:28:18.811Z,32.19
2022-09-29T18:30:46.585Z,32.57
2022-09-29T18:33:14.787Z,32.97
2022-09-29T18:35:42.625Z,32.97
2022-09-29T18:38:10.485Z,33.45
2022-09-29T18:40:38.385Z,34.29
2022-09-29T18:43:06.477Z,34.71
2022-09-29T18:45:34.169Z,34.88
2022-09-29T18:48:03.928Z,34.91
2022-09-29T18:50:31.703Z,35.73
2022-09-29T18:52:59.440Z,35.32
2022-09-29T18:55:27.165Z,35.76
2022-09-29T18:57:55.101Z,35.92
2022-09-29T19:00:22.841Z,35.98
2022-09-29T19:02:51.171Z,36.84
2022-09-29T19:05:21.033Z,36.57
2022-09-29T19:07:48.726Z,36.62
2022-09-29T19:10:16.481Z,36.95
2022-09-29T19:12:45.646Z,36.92
2022-09-29T19:15:13.369Z,37.36
2022-09-29T19:17:41.072Z,36.84
2022-09-29T19:20:08.813Z,37.07
2022-09-29T19:22:41.994Z,37.15
2022-09-29T19:25:09.868Z,37.04
2022-09-29T19:30:05.639Z,37.18
2022-09-29T19:32:33.345Z,37.38
2022-09-29T19:35:01.078Z,37.25
2022-09-29T19:37:28.812Z,37.26
2022-09-29T19:39:56.504Z,37.76
2022-09-29T19:42:24.187Z,37.60
2022-09-29T19:44:51.871Z,37.46
2022-09-29T19:47:19.540Z,37.62
2022-09-29T19:49:47.243Z,37.57
2022-09-29T19:52:13.948Z,37.53
2022-09-29T19:54:41.676Z,38.13
2022-09-29T19:57:09.396Z,37.91
2022-09-29T19:59:37.147Z,38.10
2022-09-29T20:02:05.515Z,38.05
2022-09-29T20:04:33.354Z,38.22
2022-09-29T20:07:01.075Z,38.25
2022-09-29T20:09:28.830Z,38.40
2022-09-29T20:11:58.758Z,38.33
2022-09-29T20:14:26.509Z,38.30
2022-09-29T20:16:54.183Z,38.50
2022-09-29T20:19:22.174Z,38.64
2022-09-29T20:21:50.506Z,38.68
2022-09-29T20:24:18.549Z,38.89
2022-09-29T20:26:47.019Z,38.81
2022-09-29T20:29:14.772Z,39.24
2022-09-29T20:31:42.593Z,39.29
2022-09-29T20:34:10.480Z,39.37
2022-09-29T20:36:38.192Z,38.96
2022-09-29T20:39:06.119Z,39.20
2022-09-29T20:41:33.816Z,39.41
2022-09-29T20:44:01.540Z,39.32
2022-09-29T20:46:30.016Z,39.15
2022-09-29T20:48:57.841Z,39.43
2022-09-29T20:51:25.580Z,39.35
2022-09-29T20:53:53.545Z,39.33
2022-09-29T20:56:21.267Z,39.28
2022-09-29T20:58:48.996Z,39.32
2022-09-29T21:01:16.942Z,39.35
2022-09-29T21:03:44.680Z,39.29
2022-09-29T21:06:13.352Z,39.23
2022-09-29T21:08:41.758Z,39.71
2022-09-29T21:11:10.022Z,39.67
2022-09-29T21:13:37.722Z,39.88
2022-09-29T21:16:05.571Z,39.59
2022-09-29T21:18:33.353Z,39.70
2022-09-29T21:21:01.043Z,39.68
2022-09-29T21:23:28.712Z,39.62
2022-09-29T21:25:56.395Z,40.09
2022-09-29T21:28:24.051Z,39.99
2022-09-29T21:30:51.813Z,39.83
2022-09-29T21:33:19.524Z,39.56
2022-09-29T21:35:47.518Z,40.08
2022-09-29T21:38:15.193Z,40.01
2022-09-29T21:40:42.902Z,39.99
2022-09-29T21:43:10.648Z,40.07
2022-09-29T21:45:38.379Z,39.72
2022-09-29T21:48:09.207Z,39.83
2022-09-29T21:50:36.875Z,40.16
2022-09-29T21:53:04.579Z,40.00
2022-09-29T21:55:32.263Z,40.24
2022-09-29T21:57:59.924Z,40.09
2022-09-29T22:00:27.636Z,40.12
2022-09-29T22:02:55.420Z,40.19
2022-09-29T22:05:23.266Z,40.16
2022-09-29T22:07:51.009Z,40.34
2022-09-29T22:10:18.964Z,40.42
2022-09-29T22:12:46.702Z,40.48
2022-09-29T22:15:14.437Z,40.95
2022-09-29T22:17:42.295Z,40.44
2022-09-29T22:20:10.022Z,40.44
2022-09-29T22:22:37.749Z,40.52
2022-09-29T22:25:05.447Z,40.49
2022-09-29T22:27:33.179Z,40.50
2022-09-29T22:30:00.876Z,40.55
2022-09-29T22:32:28.552Z,40.33
2022-09-29T22:34:56.221Z,40.52
2022-09-29T22:37:30.883Z,40.53
2022-09-29T22:39:58.990Z,40.33
2022-09-29T22:42:26.695Z,40.33
2022-09-29T22:44:54.388Z,40.80
2022-09-29T22:47:22.068Z,40.73
2022-09-29T22:49:49.841Z,40.76
2022-09-29T22:52:17.616Z,40.73
2022-09-29T22:54:45.280Z,40.51
2022-09-29T22:57:13.070Z,40.54
2022-09-29T22:59:40.752Z,40.73
2022-09-29T23:02:08.873Z,40.60
2022-09-29T23:04:36.679Z,40.66
2022-09-29T23:07:04.377Z,40.85
2022-09-29T23:09:32.170Z,40.54
2022-09-29T23:11:59.963Z,40.98
2022-09-29T23:14:28.222Z,41.01
2022-09-29T23:16:56.140Z,40.76
2022-09-29T23:19:23.852Z,40.96
2022-09-29T23:21:52.135Z,40.72
2022-09-29T23:24:20.497Z,40.67
2022-09-29T23:26:49.609Z,40.78
2022-09-29T23:29:17.319Z,40.95
2022-09-29T23:31:49.427Z,40.73
2022-09-29T23:34:17.376Z,40.95
2022-09-29T23:36:45.089Z,40.76
2022-09-29T23:39:14.109Z,40.74
2022-09-29T23:41:42.384Z,40.87
2022-09-29T23:44:10.222Z,41.03
2022-09-29T23:46:38.028Z,40.89
2022-09-29T23:49:09.407Z,40.85
2022-09-29T23:51:37.825Z,41.17
2022-09-29T23:54:06.126Z,41.19
2022-09-29T23:56:33.813Z,41.09
2022-09-29T23:59:01.555Z,40.90
